Weather History for Plymouth, NH

Change the Weather History Date:

Monday, February 18, 2013

  Actual Average (KLCI) Record (KLCI)
Temperature  
Mean Temperature 16 °F -  
Max Temperature 25 °F 34 °F 57 °F (2011)
Min Temperature 8 °F 12 °F -5 °F (2014)
Degree Days  
Heating Degree Days 48    
Moisture  
Dew Point -4 °F    
Average Humidity 43    
Maximum Humidity 65    
Minimum Humidity 21    
Precipitation  
Precipitation 0.00 in - - ()
Sea Level Pressure  
Sea Level Pressure 29.90 in    
Wind  
Wind Speed 19 mph (WNW)    
Max Wind Speed 25 mph    
Max Gust Speed 39 mph    
Visibility 10 miles    
Events Snow    
Averages and records for this station are not official NWS values.
T = Trace of Precipitation, MM = Missing Value Source: NWS Daily Summary

Daily Weather History Graph

Daily Weather History Graph

Search for Another Location

Airport:

Trip Planner

Search our weather history database for the weather conditions in past years. The results will help you decide how hot, cold, wet, or windy it might be!

Date:

Astronomy

Feb. 18, 2013 Rise Set
Actual Time 6:41 AM EST 5:21 PM EST
Civil Twilight 6:11 AM EST 5:50 PM EST
Nautical Twilight 5:38 AM EST 6:24 PM EST
Astronomical Twilight 5:04 AM EST 6:57 PM EST
Moon 10:59 AM EST (2/18) 1:23 AM EST (2/18)
Length of Visible Light 11h 39m
Length of Day
10h 40m
First Quarter, 58% of the Moon is Illuminated
Feb 18
First Quarter
Feb 25
Full
Mar 4
Last Quarter
Mar 11
New
Mar 19
First Quarter

Hourly Weather History & Observations

Time (EST) Temp. Windchill Dew Point Humidity Pressure Visibility Wind Dir Wind Speed Gust Speed Precip Events Conditions
12:15 AM 12.2 °F -5.3 °F -0.0 °F 58% 29.63 in 10.0 mi WNW 18.4 mph 38.0 mph N/A   Unknown
12:35 AM 11.8 °F -5.8 °F 0.3 °F 60% 29.64 in 10.0 mi WNW 18.4 mph 31.1 mph N/A   Unknown
12:55 AM 11.7 °F -6.0 °F 0.7 °F 61% 29.65 in 10.0 mi WNW 18.4 mph 38.0 mph N/A   Unknown
1:15 AM 11.3 °F -5.5 °F 1.4 °F 64% 29.66 in 10.0 mi WNW 16.1 mph 32.2 mph N/A Snow Light Snow
1:35 AM 11.3 °F -3.6 °F 1.0 °F 63% 29.68 in 10.0 mi NW 12.7 mph 21.9 mph N/A   Unknown
1:55 AM 11.3 °F -6.0 °F 0.5 °F 62% 29.69 in 10.0 mi WNW 17.3 mph 26.5 mph N/A   Unknown
2:15 AM 11.1 °F -6.2 °F -0.2 °F 60% 29.69 in 10.0 mi WNW 17.3 mph 28.8 mph N/A   Unknown
2:35 AM 11.1 °F -8.9 °F -0.6 °F 59% 29.69 in 10.0 mi WNW 24.2 mph 39.1 mph N/A   Unknown
2:55 AM 10.8 °F -6.2 °F -0.4 °F 61% 29.71 in 10.0 mi WNW 16.1 mph 32.2 mph N/A   Unknown
3:15 AM 10.4 °F -8.2 °F -0.4 °F 62% 29.72 in 10.0 mi WNW 19.6 mph 31.1 mph N/A   Unknown
3:35 AM 10.4 °F -7.2 °F 0.1 °F 63% 29.73 in 10.0 mi WNW 17.3 mph 25.3 mph N/A   Unknown
3:55 AM 10.2 °F -8.4 °F -0.4 °F 62% 29.74 in 10.0 mi WNW 19.6 mph 32.2 mph N/A   Unknown
4:15 AM 9.9 °F -9.3 °F -0.4 °F 63% 29.75 in 10.0 mi West 20.7 mph 29.9 mph N/A   Unknown
4:35 AM 9.5 °F -11.1 °F -1.3 °F 62% 29.76 in 10.0 mi West 24.2 mph 34.5 mph N/A   Unknown
4:55 AM 9.5 °F -10.3 °F -1.3 °F 62% 29.77 in 10.0 mi WNW 21.9 mph 28.8 mph N/A   Unknown
5:15 AM 9.5 °F -10.3 °F -1.3 °F 62% 29.79 in 10.0 mi West 21.9 mph 29.9 mph N/A   Unknown
5:55 AM 9.0 °F -12.2 °F -1.3 °F 63% 29.80 in 10.0 mi WNW 25.3 mph 34.5 mph N/A   Unknown
6:15 AM 9.0 °F -10.0 °F -0.9 °F 64% 29.82 in 10.0 mi West 19.6 mph 25.3 mph N/A   Unknown
6:35 AM 8.6 °F -10.0 °F -1.1 °F 65% 29.83 in 10.0 mi West 18.4 mph 24.2 mph N/A   Unknown
6:55 AM 8.6 °F -10.5 °F -1.3 °F 64% 29.85 in 10.0 mi West 19.6 mph 26.5 mph N/A   Unknown
7:15 AM 8.6 °F -8.9 °F -1.3 °F 64% 29.86 in 10.0 mi WNW 16.1 mph 26.5 mph N/A   Unknown
7:35 AM 9.0 °F -10.5 °F -1.5 °F 63% 29.87 in 10.0 mi WNW 20.7 mph 32.2 mph N/A   Unknown
7:55 AM 9.0 °F -10.5 °F -1.5 °F 63% 29.89 in 10.0 mi West 20.7 mph 28.8 mph N/A   Unknown
8:15 AM 9.5 °F -9.8 °F -1.5 °F 61% 29.91 in 10.0 mi West 20.7 mph 28.8 mph N/A   Unknown
8:35 AM 10.4 °F -8.2 °F -1.3 °F 59% 29.92 in 10.0 mi West 19.6 mph 28.8 mph N/A   Unknown
9:15 AM 12.2 °F -6.3 °F -0.9 °F 56% 29.94 in 10.0 mi West 20.7 mph 32.2 mph N/A   Unknown
9:35 AM 13.1 °F -2.6 °F -0.6 °F 54% 29.94 in 10.0 mi WNW 15.0 mph 27.6 mph N/A   Unknown
10:15 AM 14.9 °F -2.3 °F -0.2 °F 51% 29.94 in 10.0 mi West 19.6 mph 38.0 mph N/A   Unknown
10:35 AM 15.4 °F -2.0 °F 0.1 °F 51% 29.95 in 10.0 mi West 20.7 mph 32.2 mph N/A   Unknown
10:55 AM 16.7 °F 0.5 °F 0.5 °F 49% 29.95 in 10.0 mi West 18.4 mph 31.1 mph N/A   Unknown
11:15 AM 17.6 °F 1.3 °F 0.5 °F 47% 29.95 in 10.0 mi West 19.6 mph 31.1 mph N/A   Unknown
11:35 AM 18.3 °F 3.1 °F -0.8 °F 43% 29.95 in 10.0 mi West 17.3 mph 32.2 mph N/A   Unknown
12:15 PM 20.3 °F 4.8 °F -2.0 °F 38% 29.95 in 10.0 mi West 19.6 mph 29.9 mph N/A   Unknown
12:35 PM 21.2 °F 5.6 °F -3.1 °F 34% 29.94 in 10.0 mi West 20.7 mph 31.1 mph N/A   Unknown
12:55 PM 22.1 °F 7.6 °F -3.3 °F 33% 29.95 in 10.0 mi West 18.4 mph 29.9 mph N/A   Unknown
1:15 PM 22.5 °F 7.6 °F -5.4 °F 29% 29.95 in 10.0 mi West 19.6 mph 31.1 mph N/A   Unknown
1:35 PM 23.0 °F 7.2 °F -5.8 °F 28% 29.96 in 10.0 mi West 23.0 mph 31.1 mph N/A   Unknown
1:55 PM 23.0 °F 7.6 °F -6.2 °F 28% 29.96 in 10.0 mi West 21.9 mph 34.5 mph N/A   Unknown
2:15 PM 23.7 °F 8.9 °F -7.6 °F 25% 29.96 in 10.0 mi West 20.7 mph 33.4 mph N/A   Unknown
2:35 PM 24.3 °F 12.2 °F -7.2 °F 25% 29.96 in 10.0 mi West 13.8 mph 27.6 mph N/A   Unknown
2:55 PM 24.4 °F 10.6 °F -7.8 °F 24% 29.97 in 10.0 mi WNW 18.4 mph 31.1 mph N/A   Unknown
3:15 PM 24.8 °F 10.0 °F -7.4 °F 24% 29.97 in 10.0 mi WNW 21.9 mph 32.2 mph N/A   Unknown
3:35 PM 25.2 °F 10.8 °F -9.4 °F 22% 29.97 in 10.0 mi WNW 20.7 mph 32.2 mph N/A   Unknown
3:55 PM 25.3 °F 13.6 °F -9.6 °F 21% 29.98 in 10.0 mi NW 13.8 mph 24.2 mph N/A   Unknown
4:15 PM 25.3 °F 12.2 °F -7.8 °F 23% 29.99 in 10.0 mi WNW 17.3 mph 26.5 mph N/A   Unknown
4:35 PM 25.3 °F 12.2 °F -9.9 °F 21% 30.00 in 10.0 mi West 17.3 mph 24.2 mph N/A   Unknown
4:55 PM 24.8 °F 10.7 °F -9.9 °F 22% 30.01 in 10.0 mi West 19.6 mph 27.6 mph N/A   Unknown
5:15 PM 24.3 °F 11.2 °F -9.2 °F 23% 30.01 in 10.0 mi West 16.1 mph 26.5 mph N/A   Unknown
5:35 PM 23.9 °F 9.5 °F -9.6 °F 23% 30.02 in 10.0 mi WNW 19.6 mph 28.8 mph N/A   Unknown
5:55 PM 23.7 °F 11.5 °F -9.0 °F 23% 30.02 in 10.0 mi WNW 13.8 mph 21.9 mph N/A   Unknown
6:15 PM 23.5 °F 9.9 °F -8.7 °F 24% 30.03 in 10.0 mi West 17.3 mph 29.9 mph N/A   Unknown
6:35 PM 22.8 °F 9.9 °F -7.1 °F 27% 30.03 in 10.0 mi WNW 15.0 mph 24.2 mph N/A   Unknown
6:55 PM 23.0 °F 10.6 °F -9.6 °F 24% 30.03 in 10.0 mi West 13.8 mph 24.2 mph N/A   Unknown
7:15 PM 23.0 °F 8.3 °F -9.0 °F 24% 30.04 in 10.0 mi WNW 19.6 mph 28.8 mph N/A   Unknown
7:35 PM 22.8 °F 8.9 °F -8.7 °F 25% 30.04 in 10.0 mi West 17.3 mph 34.5 mph N/A   Unknown
7:55 PM 22.3 °F 7.8 °F -8.3 °F 26% 30.04 in 10.0 mi West 18.4 mph 26.5 mph N/A   Unknown
8:35 PM 21.9 °F 5.5 °F -8.7 °F 26% 30.04 in 10.0 mi West 24.2 mph 31.1 mph N/A   Unknown
8:55 PM 21.6 °F 5.7 °F -8.5 °F 26% 30.04 in 10.0 mi West 21.9 mph 29.9 mph N/A   Unknown
9:15 PM 21.6 °F 6.1 °F -8.5 °F 26% 30.03 in 10.0 mi West 20.7 mph 29.9 mph N/A   Unknown
9:35 PM 21.7 °F 7.5 °F -8.7 °F 26% 30.03 in 10.0 mi West 17.3 mph 27.6 mph N/A   Unknown
10:15 PM 21.2 °F 12.6 °F -8.7 °F 27% 30.04 in 10.0 mi West 6.9 mph 21.9 mph N/A   Unknown
10:55 PM 20.8 °F 8.4 °F -9.0 °F 26% 30.05 in 10.0 mi West 12.7 mph 23.0 mph N/A   Unknown
11:15 PM 21.0 °F 8.1 °F -9.6 °F 26% 30.05 in 10.0 mi West 13.8 mph 21.9 mph N/A   Unknown
11:35 PM 20.7 °F 10.2 °F -9.6 °F 26% 30.05 in 10.0 mi West 9.2 mph 21.9 mph N/A   Unknown